createdAt,value
2019-04-01T00:00:18.925Z,10.26
2019-04-01T00:02:45.892Z,10.12
2019-04-01T00:05:13.114Z,10.06
2019-04-01T00:07:39.913Z,9.96
2019-04-01T00:10:07.614Z,9.99
2019-04-01T00:12:34.435Z,9.83
2019-04-01T00:15:01.668Z,9.97
2019-04-01T00:17:28.700Z,10.00
2019-04-01T00:19:55.619Z,10.04
2019-04-01T00:22:22.494Z,9.92
2019-04-01T00:24:51.738Z,9.85
2019-04-01T00:27:18.572Z,9.79
2019-04-01T00:29:45.384Z,9.84
2019-04-01T00:32:14.203Z,9.88
2019-04-01T00:34:41.539Z,9.73
2019-04-01T00:37:08.604Z,9.73
2019-04-01T00:39:35.752Z,9.68
2019-04-01T00:42:07.818Z,9.73
2019-04-01T00:44:34.907Z,9.61
2019-04-01T00:47:01.787Z,9.59
2019-04-01T00:49:28.960Z,9.49
2019-04-01T00:51:55.705Z,9.40
2019-04-01T00:54:22.459Z,9.55
2019-04-01T00:56:49.564Z,9.60
2019-04-01T00:59:16.457Z,9.63
2019-04-01T01:01:43.326Z,9.63
2019-04-01T01:04:10.324Z,9.70
2019-04-01T01:06:37.209Z,9.49
2019-04-01T01:09:04.924Z,9.39
2019-04-01T01:11:32.045Z,9.29
2019-04-01T01:13:58.972Z,9.27
2019-04-01T01:16:26.069Z,9.31
2019-04-01T01:18:52.933Z,9.30
2019-04-01T01:21:20.280Z,9.42
2019-04-01T01:23:47.003Z,9.30
2019-04-01T01:26:13.823Z,9.22
2019-04-01T01:28:40.739Z,9.13
2019-04-01T01:31:07.585Z,9.03
2019-04-01T01:33:34.669Z,9.00
2019-04-01T01:36:01.440Z,8.96
2019-04-01T01:38:29.584Z,8.93
2019-04-01T01:40:58.405Z,8.95
2019-04-01T01:43:25.753Z,8.96
2019-04-01T01:45:52.589Z,9.05
2019-04-01T01:48:19.356Z,8.92
2019-04-01T01:50:48.044Z,8.97
2019-04-01T01:53:14.836Z,8.90
2019-04-01T01:55:41.638Z,8.89
2019-04-01T01:58:10.458Z,8.60
2019-04-01T02:00:39.498Z,8.77
2019-04-01T02:03:06.835Z,8.85
2019-04-01T02:05:34.117Z,8.72
2019-04-01T02:08:01.075Z,8.58
2019-04-01T02:10:28.196Z,8.69
2019-04-01T02:12:55.108Z,8.73
2019-04-01T02:15:22.460Z,8.69
2019-04-01T02:17:49.641Z,8.70
2019-04-01T02:20:17.031Z,8.55
2019-04-01T02:22:45.765Z,8.55
2019-04-01T02:25:14.631Z,8.59
2019-04-01T02:27:41.449Z,8.60
2019-04-01T02:30:08.689Z,8.60
2019-04-01T02:32:35.792Z,8.43
2019-04-01T02:35:04.272Z,8.47
2019-04-01T02:37:31.508Z,8.54
2019-04-01T02:39:58.771Z,8.44
2019-04-01T02:42:25.739Z,8.37
2019-04-01T02:44:53.035Z,8.45
2019-04-01T02:47:19.931Z,8.38
2019-04-01T02:49:46.864Z,8.15
2019-04-01T02:52:13.737Z,7.93
2019-04-01T02:54:40.802Z,7.88
2019-04-01T02:57:07.811Z,7.69
2019-04-01T02:59:34.961Z,7.82
2019-04-01T03:02:05.272Z,7.68
2019-04-01T03:04:32.508Z,7.60
2019-04-01T03:06:59.357Z,7.68
2019-04-01T03:09:26.503Z,7.62
2019-04-01T03:11:53.236Z,7.75
2019-04-01T03:14:20.658Z,7.64
2019-04-01T03:16:47.389Z,7.59
2019-04-01T03:19:14.354Z,7.54
2019-04-01T03:21:41.171Z,7.54
2019-04-01T03:24:07.955Z,7.71
2019-04-01T03:26:34.800Z,7.88
2019-04-01T03:29:01.789Z,7.79
2019-04-01T03:31:28.896Z,7.83
2019-04-01T03:33:55.854Z,7.74
2019-04-01T03:36:23.740Z,7.66
2019-04-01T03:38:50.856Z,7.41
2019-04-01T03:41:17.910Z,7.47
2019-04-01T03:43:44.811Z,7.56
2019-04-01T03:46:12.253Z,7.45
2019-04-01T03:48:39.648Z,7.22
2019-04-01T03:51:06.682Z,7.15
2019-04-01T03:53:33.590Z,7.15
2019-04-01T03:56:00.679Z,7.00
2019-04-01T03:58:27.949Z,7.21
2019-04-01T04:00:54.791Z,7.13
2019-04-01T04:03:21.912Z,6.88
2019-04-01T04:05:48.726Z,6.83
2019-04-01T04:08:15.815Z,7.02
2019-04-01T04:10:42.771Z,7.13
2019-04-01T04:13:10.081Z,7.16
2019-04-01T04:15:37.209Z,7.10
2019-04-01T04:18:04.012Z,7.10
2019-04-01T04:20:31.103Z,7.08
2019-04-01T04:23:02.934Z,7.05
2019-04-01T04:25:31.690Z,6.81
2019-04-01T04:28:00.662Z,6.97
2019-04-01T04:30:30.263Z,7.07
2019-04-01T04:32:57.602Z,7.03
2019-04-01T04:35:24.908Z,7.15
2019-04-01T04:37:54.528Z,7.27
2019-04-01T04:40:21.413Z,7.14
2019-04-01T04:42:48.624Z,7.15
2019-04-01T04:45:15.848Z,7.26
2019-04-01T04:47:43.020Z,7.20
2019-04-01T04:50:10.126Z,7.09
2019-04-01T04:52:37.265Z,7.12
2019-04-01T04:55:05.217Z,7.13
2019-04-01T04:57:32.515Z,7.10
2019-04-01T05:00:04.554Z,6.84
2019-04-01T05:02:31.769Z,6.77
2019-04-01T05:04:59.153Z,6.95
2019-04-01T05:07:25.953Z,6.92
2019-04-01T05:09:53.466Z,6.86
2019-04-01T05:12:20.457Z,6.81
2019-04-01T05:14:47.645Z,6.94
2019-04-01T05:17:14.591Z,7.04
2019-04-01T05:19:42.456Z,7.13
2019-04-01T05:22:10.106Z,6.95
2019-04-01T05:24:38.034Z,6.96
2019-04-01T05:27:07.257Z,6.97
2019-04-01T05:29:36.731Z,6.88
2019-04-01T05:32:04.186Z,6.88
2019-04-01T05:34:34.666Z,6.88
2019-04-01T05:37:01.498Z,6.87
2019-04-01T05:39:28.544Z,6.75
2019-04-01T05:41:55.513Z,6.64
2019-04-01T05:44:22.748Z,6.54
2019-04-01T05:46:50.164Z,6.50
2019-04-01T05:49:19.849Z,6.63
2019-04-01T05:51:46.817Z,6.84
2019-04-01T05:54:13.834Z,6.73
2019-04-01T05:56:41.124Z,6.62
2019-04-01T05:59:10.383Z,6.55
2019-04-01T06:01:41.992Z,6.61
2019-04-01T06:04:09.717Z,6.69
2019-04-01T06:06:36.608Z,6.77
2019-04-01T06:09:07.116Z,6.82
2019-04-01T06:11:35.315Z,6.87
2019-04-01T06:14:03.661Z,6.96
2019-04-01T06:16:33.954Z,6.88
2019-04-01T06:19:01.377Z,6.95
2019-04-01T06:21:29.214Z,7.08
2019-04-01T06:23:57.357Z,7.05
2019-04-01T06:26:24.751Z,7.20
2019-04-01T06:28:52.348Z,7.25
2019-04-01T06:31:19.246Z,7.48
2019-04-01T06:33:46.706Z,7.56
2019-04-01T06:36:13.837Z,7.60
2019-04-01T06:38:41.282Z,7.66
2019-04-01T06:41:08.549Z,7.52
2019-04-01T06:43:36.950Z,7.59
2019-04-01T06:46:04.481Z,7.56
2019-04-01T06:48:32.990Z,7.54
2019-04-01T06:50:59.847Z,7.61
2019-04-01T06:53:30.304Z,7.66
2019-04-01T06:55:57.656Z,7.71
2019-04-01T06:58:25.205Z,7.96
2019-04-01T07:00:52.224Z,8.01
2019-04-01T07:03:19.470Z,8.14
2019-04-01T07:05:46.325Z,8.18
2019-04-01T07:08:13.822Z,8.31
2019-04-01T07:10:41.415Z,8.44
2019-04-01T07:13:08.601Z,8.71
2019-04-01T07:15:35.656Z,8.77
2019-04-01T07:18:03.767Z,8.87
2019-04-01T07:20:32.159Z,9.03
2019-04-01T07:22:59.482Z,9.14
2019-04-01T07:25:26.676Z,9.24
2019-04-01T07:27:53.830Z,9.30
2019-04-01T07:30:21.170Z,9.39
2019-04-01T07:32:50.348Z,9.56
2019-04-01T07:35:18.017Z,9.60
2019-04-01T07:37:47.249Z,9.61
2019-04-01T07:40:14.580Z,9.73
2019-04-01T07:42:42.063Z,9.89
2019-04-01T07:45:12.509Z,10.03
2019-04-01T07:47:39.517Z,10.14
2019-04-01T07:50:08.188Z,10.13
2019-04-01T07:52:36.620Z,10.24
2019-04-01T07:55:07.615Z,10.34
2019-04-01T07:57:35.573Z,10.56
2019-04-01T08:00:08.970Z,10.64
2019-04-01T08:02:35.999Z,10.78
2019-04-01T08:05:04.581Z,10.97
2019-04-01T08:07:31.791Z,11.20
2019-04-01T08:09:58.923Z,11.48
2019-04-01T08:12:27.878Z,11.70
2019-04-01T08:14:55.386Z,11.88
2019-04-01T08:17:22.193Z,12.04
2019-04-01T08:19:49.257Z,12.20
2019-04-01T08:22:16.390Z,12.38
2019-04-01T08:24:43.300Z,12.50
2019-04-01T08:27:10.640Z,12.54
2019-04-01T08:29:37.665Z,12.70
2019-04-01T08:32:04.764Z,12.82
2019-04-01T08:34:31.821Z,12.96
2019-04-01T08:36:59.137Z,13.02
2019-04-01T08:39:26.317Z,13.18
2019-04-01T08:41:53.878Z,13.43
2019-04-01T08:44:20.966Z,13.27
2019-04-01T08:46:48.249Z,13.39
2019-04-01T08:49:15.717Z,13.52
2019-04-01T08:51:43.430Z,13.73
2019-04-01T08:54:11.064Z,13.99
2019-04-01T08:56:40.975Z,14.38
2019-04-01T08:59:08.564Z,14.64
2019-04-01T09:01:35.964Z,14.55
2019-04-01T09:04:03.792Z,14.80
2019-04-01T09:06:31.541Z,15.00
2019-04-01T09:08:59.850Z,15.02
2019-04-01T09:11:27.596Z,15.09
2019-04-01T09:13:55.251Z,15.41
2019-04-01T09:16:22.326Z,15.48
2019-04-01T09:18:49.847Z,15.45
2019-04-01T09:21:16.925Z,15.60
2019-04-01T09:23:44.100Z,15.89
2019-04-01T09:26:11.122Z,16.02
2019-04-01T09:28:39.580Z,16.17
2019-04-01T09:31:06.672Z,16.36
2019-04-01T09:33:33.530Z,16.40
2019-04-01T09:36:00.289Z,16.25
2019-04-01T09:38:27.257Z,16.41
2019-04-01T09:40:54.494Z,16.56
2019-04-01T09:43:21.847Z,16.55
2019-04-01T09:45:48.653Z,16.65
2019-04-01T09:48:16.251Z,16.76
2019-04-01T09:50:43.079Z,16.92
2019-04-01T09:53:10.133Z,17.17
2019-04-01T09:55:37.802Z,17.04
2019-04-01T09:58:04.844Z,16.91
2019-04-01T10:00:31.766Z,16.86
2019-04-01T10:02:58.528Z,17.20
2019-04-01T10:05:25.459Z,17.44
2019-04-01T10:07:52.267Z,17.38
2019-04-01T10:10:19.776Z,17.46
2019-04-01T10:12:49.992Z,17.44
2019-04-01T10:15:16.889Z,17.46
2019-04-01T10:17:46.027Z,17.30
2019-04-01T10:20:14.341Z,17.58
2019-04-01T10:22:41.666Z,17.75
2019-04-01T10:25:12.722Z,17.90
2019-04-01T10:27:39.406Z,18.17
2019-04-01T10:30:09.434Z,18.09
2019-04-01T10:32:36.673Z,17.97
2019-04-01T10:35:06.658Z,18.44
2019-04-01T10:37:34.315Z,18.87
2019-04-01T10:40:01.076Z,18.83
2019-04-01T10:42:27.988Z,19.02
2019-04-01T10:44:55.313Z,19.02
2019-04-01T10:47:24.798Z,19.03
2019-04-01T10:49:51.992Z,19.16
2019-04-01T10:52:19.617Z,19.56
2019-04-01T10:54:49.177Z,19.86
2019-04-01T10:57:15.987Z,19.72
2019-04-01T10:59:42.874Z,20.03
2019-04-01T11:02:09.968Z,20.08
2019-04-01T11:04:37.210Z,19.89
2019-04-01T11:07:04.897Z,19.95
2019-04-01T11:09:38.484Z,19.93
2019-04-01T11:12:03.800Z,20.19
2019-04-01T11:14:30.926Z,20.21
2019-04-01T11:16:58.535Z,20.03
2019-04-01T11:19:26.486Z,20.56
2019-04-01T11:21:53.322Z,20.77
2019-04-01T11:24:21.113Z,20.71
2019-04-01T11:26:48.179Z,21.02
2019-04-01T11:29:15.847Z,21.25
2019-04-01T11:31:45.131Z,21.86
2019-04-01T11:34:12.920Z,22.60
2019-04-01T11:36:40.377Z,22.35
2019-04-01T11:39:11.974Z,21.85
2019-04-01T11:41:39.490Z,22.27
2019-04-01T11:44:07.025Z,22.77
2019-04-01T11:46:36.165Z,23.44
2019-04-01T11:49:03.522Z,23.56
2019-04-01T11:51:33.561Z,23.47
2019-04-01T11:53:59.604Z,23.75
2019-04-01T11:56:27.792Z,24.05
2019-04-01T11:58:56.733Z,24.14
2019-04-01T12:01:24.420Z,24.27
2019-04-01T12:03:51.316Z,24.46
2019-04-01T12:06:18.370Z,24.89
2019-04-01T12:08:46.083Z,24.80
2019-04-01T12:11:13.425Z,24.75
2019-04-01T12:13:40.918Z,24.47
2019-04-01T12:16:10.810Z,24.95
2019-04-01T12:18:37.756Z,25.26
2019-04-01T12:21:05.660Z,25.25
2019-04-01T12:23:32.974Z,25.34
2019-04-01T12:26:14.354Z,25.08
2019-04-01T12:28:29.332Z,25.34
2019-04-01T12:30:56.386Z,25.68
2019-04-01T12:33:26.312Z,25.39
2019-04-01T12:35:55.257Z,25.31
2019-04-01T12:38:22.142Z,25.65
2019-04-01T12:40:49.035Z,25.49
2019-04-01T12:43:16.432Z,25.55
2019-04-01T12:45:43.620Z,25.64
2019-04-01T12:48:13.086Z,25.75
2019-04-01T12:50:40.100Z,25.45
2019-04-01T12:53:07.079Z,25.80
2019-04-01T12:55:34.764Z,25.47
2019-04-01T12:58:01.762Z,25.24
2019-04-01T13:00:29.455Z,25.23
2019-04-01T13:02:56.768Z,25.70
2019-04-01T13:05:24.328Z,25.77
2019-04-01T13:07:54.302Z,26.09
2019-04-01T13:10:21.119Z,26.27
2019-04-01T13:12:47.979Z,26.18
2019-04-01T13:15:15.270Z,26.04
2019-04-01T13:17:42.159Z,25.91
2019-04-01T13:20:10.131Z,26.05
2019-04-01T13:22:38.162Z,26.05
2019-04-01T13:25:06.386Z,26.05
2019-04-01T13:27:33.182Z,26.56
2019-04-01T13:30:00.211Z,26.07
2019-04-01T13:32:26.974Z,26.49
2019-04-01T13:34:54.456Z,25.89
2019-04-01T13:37:21.453Z,25.05
2019-04-01T13:39:48.535Z,24.43
2019-04-01T13:42:15.564Z,24.74
2019-04-01T13:44:42.462Z,24.84
2019-04-01T13:47:09.204Z,24.64
2019-04-01T13:49:36.129Z,24.37
2019-04-01T13:52:03.919Z,24.78
2019-04-01T13:54:31.555Z,24.84
2019-04-01T13:57:02.856Z,24.62
2019-04-01T13:59:29.801Z,23.57
2019-04-01T14:01:57.216Z,23.12
2019-04-01T14:04:24.586Z,22.73
2019-04-01T14:06:52.936Z,22.66
2019-04-01T14:09:20.915Z,22.25
2019-04-01T14:11:49.158Z,22.10
2019-04-01T14:14:15.971Z,21.72
2019-04-01T14:16:45.745Z,21.56
2019-04-01T14:19:12.523Z,21.31
2019-04-01T14:21:39.432Z,20.88
2019-04-01T14:24:06.283Z,21.19
2019-04-01T14:26:33.426Z,20.96
2019-04-01T14:29:00.301Z,21.19
2019-04-01T14:31:27.131Z,20.99
2019-04-01T14:33:54.237Z,20.68
2019-04-01T14:36:33.272Z,20.31
2019-04-01T14:39:00.475Z,20.34
2019-04-01T14:41:27.328Z,20.33
2019-04-01T14:43:55.235Z,20.57
2019-04-01T14:46:24.429Z,20.49
2019-04-01T14:48:52.932Z,20.26
2019-04-01T14:51:19.786Z,20.22
2019-04-01T14:53:48.699Z,20.26
2019-04-01T14:56:15.544Z,20.35
2019-04-01T14:58:43.595Z,20.44
2019-04-01T15:01:12.074Z,20.29
2019-04-01T15:03:39.572Z,20.16
2019-04-01T15:06:08.135Z,20.12
2019-04-01T15:08:34.917Z,20.03
2019-04-01T15:11:01.846Z,19.95
2019-04-01T15:13:28.797Z,19.87
2019-04-01T15:15:55.785Z,19.73
2019-04-01T15:18:22.642Z,19.64
2019-04-01T15:20:52.390Z,19.66
2019-04-01T15:23:19.179Z,19.55
2019-04-01T15:25:46.258Z,19.58
2019-04-01T15:28:13.178Z,19.48
2019-04-01T15:30:40.013Z,19.47
2019-04-01T15:33:06.891Z,19.50
2019-04-01T15:35:33.829Z,19.43
2019-04-01T15:38:00.981Z,19.40
2019-04-01T15:40:28.160Z,19.45
2019-04-01T15:42:55.425Z,19.48
2019-04-01T15:45:22.789Z,19.53
2019-04-01T15:47:50.225Z,19.52
2019-04-01T15:50:28.450Z,19.52
2019-04-01T15:52:45.992Z,19.49
2019-04-01T15:55:15.180Z,19.34
2019-04-01T15:57:42.439Z,19.27
2019-04-01T16:00:10.926Z,19.24
2019-04-01T16:02:37.713Z,19.19
2019-04-01T16:05:07.236Z,19.16
2019-04-01T16:07:34.193Z,19.09
2019-04-01T16:10:01.255Z,19.10
2019-04-01T16:12:28.153Z,18.98
2019-04-01T16:14:55.325Z,18.97
2019-04-01T16:17:22.363Z,18.93
2019-04-01T16:19:49.732Z,18.91
2019-04-01T16:22:17.200Z,18.85
2019-04-01T16:24:44.984Z,18.78
2019-04-01T16:27:12.965Z,18.79
2019-04-01T16:29:40.252Z,18.74
2019-04-01T16:32:09.731Z,18.62
2019-04-01T16:34:37.103Z,18.59
2019-04-01T16:37:04.670Z,18.53
2019-04-01T16:39:33.408Z,18.51
2019-04-01T16:42:00.808Z,18.49
2019-04-01T16:44:28.121Z,18.46
2019-04-01T16:46:55.537Z,18.43
2019-04-01T16:49:23.177Z,18.36
2019-04-01T16:51:51.818Z,18.34
2019-04-01T16:54:21.047Z,18.33
2019-04-01T16:56:48.606Z,18.21
2019-04-01T16:59:15.652Z,18.21
2019-04-01T17:01:46.033Z,18.19
2019-04-01T17:04:17.156Z,18.14
2019-04-01T17:06:46.730Z,18.07
2019-04-01T17:09:13.757Z,18.00
2019-04-01T17:11:43.097Z,17.93
2019-04-01T17:14:10.892Z,17.88
2019-04-01T17:16:39.038Z,17.82
2019-04-01T17:19:07.045Z,17.84
2019-04-01T17:21:34.866Z,17.82
2019-04-01T17:24:01.805Z,17.73
2019-04-01T17:26:28.765Z,17.66
2019-04-01T17:28:56.432Z,17.58
2019-04-01T17:31:24.928Z,17.55
2019-04-01T17:33:52.074Z,17.46
2019-04-01T17:36:19.021Z,17.42
2019-04-01T17:38:48.124Z,17.41
2019-04-01T17:41:15.091Z,17.36
2019-04-01T17:43:45.246Z,17.33
2019-04-01T17:46:15.329Z,17.23
2019-04-01T17:48:43.786Z,17.18
2019-04-01T17:51:11.029Z,17.09
2019-04-01T17:53:37.822Z,17.07
2019-04-01T17:56:05.713Z,17.01
2019-04-01T17:58:32.795Z,16.91
2019-04-01T18:01:00.080Z,16.82
2019-04-01T18:03:27.081Z,16.80
2019-04-01T18:05:54.286Z,16.81
2019-04-01T18:08:21.228Z,16.71
2019-04-01T18:10:48.901Z,16.70
2019-04-01T18:13:16.175Z,16.60
2019-04-01T18:15:43.081Z,16.54
2019-04-01T18:18:10.226Z,16.41
2019-04-01T18:20:37.559Z,16.34
2019-04-01T18:23:05.056Z,16.28
2019-04-01T18:25:32.551Z,16.16
2019-04-01T18:27:59.472Z,16.03
2019-04-01T18:30:27.377Z,15.91
2019-04-01T18:32:55.343Z,15.76
2019-04-01T18:35:25.474Z,15.68
2019-04-01T18:37:52.664Z,15.54
2019-04-01T18:40:31.797Z,15.41
2019-04-01T18:42:48.571Z,15.30
2019-04-01T18:45:15.799Z,15.30
2019-04-01T18:47:45.627Z,15.31
2019-04-01T18:50:14.267Z,15.24
2019-04-01T18:52:42.088Z,15.19
2019-04-01T18:55:11.006Z,15.13
2019-04-01T18:57:38.019Z,15.04
2019-04-01T19:00:09.047Z,14.91
2019-04-01T19:02:36.184Z,14.93
2019-04-01T19:05:04.655Z,14.81
2019-04-01T19:07:32.058Z,14.75
2019-04-01T19:10:05.869Z,14.72
2019-04-01T19:12:30.659Z,14.60
2019-04-01T19:14:57.964Z,14.50
2019-04-01T19:17:25.037Z,14.52
2019-04-01T19:19:52.405Z,14.57
2019-04-01T19:22:19.449Z,14.58
2019-04-01T19:24:46.819Z,14.55
2019-04-01T19:27:13.847Z,14.54
2019-04-01T19:29:43.311Z,14.43
2019-04-01T19:32:14.522Z,14.43
2019-04-01T19:34:40.459Z,14.24
2019-04-01T19:37:08.206Z,14.17
2019-04-01T19:39:35.553Z,14.02
2019-04-01T19:42:02.801Z,13.86
2019-04-01T19:44:29.862Z,13.84
2019-04-01T19:46:56.833Z,13.66
2019-04-01T19:49:24.613Z,13.69
2019-04-01T19:51:51.689Z,13.67
2019-04-01T19:54:26.840Z,13.67
2019-04-01T19:56:49.627Z,13.36
2019-04-01T19:59:17.296Z,13.39
2019-04-01T20:01:45.089Z,13.40
2019-04-01T20:04:14.277Z,13.25
2019-04-01T20:06:44.101Z,13.02
2019-04-01T20:09:14.066Z,12.81
2019-04-01T20:11:44.769Z,12.70
2019-04-01T20:14:12.053Z,12.60
2019-04-01T20:16:41.125Z,12.55
2019-04-01T20:19:08.330Z,12.57
2019-04-01T20:21:37.136Z,12.75
2019-04-01T20:24:04.198Z,12.70
2019-04-01T20:26:31.599Z,12.57
2019-04-01T20:28:58.906Z,12.41
2019-04-01T20:31:25.851Z,12.42
2019-04-01T20:33:53.491Z,12.38
2019-04-01T20:36:28.426Z,12.40
2019-04-01T20:38:55.248Z,12.39
2019-04-01T20:41:23.736Z,12.39
2019-04-01T20:43:50.985Z,12.40
2019-04-01T20:46:20.428Z,12.28
2019-04-01T20:48:47.865Z,12.22
2019-04-01T20:51:16.826Z,12.26
2019-04-01T20:53:43.909Z,12.11
2019-04-01T20:56:12.158Z,11.92
2019-04-01T20:58:39.058Z,11.92
2019-04-01T21:01:09.045Z,11.83
2019-04-01T21:03:38.534Z,11.75
2019-04-01T21:06:06.879Z,11.84
2019-04-01T21:08:38.054Z,11.78
2019-04-01T21:11:07.470Z,11.78
2019-04-01T21:13:35.138Z,11.63
2019-04-01T21:16:03.879Z,11.67
2019-04-01T21:18:31.743Z,11.87
2019-04-01T21:20:58.949Z,11.99
2019-04-01T21:23:26.345Z,12.02
2019-04-01T21:25:53.798Z,11.76
2019-04-01T21:28:22.867Z,11.85
2019-04-01T21:30:49.811Z,11.85
2019-04-01T21:33:16.867Z,11.77
2019-04-01T21:35:46.655Z,11.74
2019-04-01T21:38:14.517Z,11.62
2019-04-01T21:40:43.501Z,11.52
2019-04-01T21:43:11.648Z,11.55
2019-04-01T21:45:45.520Z,11.69
2019-04-01T21:48:13.825Z,11.59
2019-04-01T21:50:40.984Z,11.57
2019-04-01T21:53:08.263Z,11.50
2019-04-01T21:55:35.433Z,11.57
2019-04-01T21:58:02.814Z,11.56
2019-04-01T22:00:39.097Z,11.58
2019-04-01T22:03:06.905Z,11.56
2019-04-01T22:05:34.541Z,11.46
2019-04-01T22:08:01.893Z,11.52
2019-04-01T22:10:29.319Z,11.22
2019-04-01T22:12:57.522Z,11.13
2019-04-01T22:15:24.754Z,11.03
2019-04-01T22:17:52.270Z,10.91
2019-04-01T22:20:20.065Z,10.94
2019-04-01T22:22:47.986Z,10.98
2019-04-01T22:25:15.885Z,11.05
2019-04-01T22:27:42.689Z,11.16
2019-04-01T22:30:10.436Z,11.22
2019-04-01T22:32:38.124Z,11.34
2019-04-01T22:35:07.970Z,11.36
2019-04-01T22:37:34.551Z,11.26
2019-04-01T22:40:01.904Z,11.19
2019-04-01T22:42:28.867Z,11.11
2019-04-01T22:44:55.824Z,11.10
2019-04-01T22:47:24.323Z,11.12
2019-04-01T22:49:51.548Z,11.20
2019-04-01T22:52:19.932Z,11.17
2019-04-01T22:54:48.711Z,11.16
2019-04-01T22:57:16.037Z,11.22
2019-04-01T22:59:43.025Z,11.26
2019-04-01T23:02:10.161Z,11.26
2019-04-01T23:04:37.177Z,11.13
2019-04-01T23:07:05.269Z,10.90
2019-04-01T23:09:32.253Z,10.79
2019-04-01T23:12:00.172Z,10.61
2019-04-01T23:14:27.346Z,10.44
2019-04-01T23:16:54.555Z,10.59
2019-04-01T23:19:21.759Z,10.53
2019-04-01T23:21:49.144Z,10.54
2019-04-01T23:24:16.318Z,10.54
2019-04-01T23:26:44.280Z,10.68
2019-04-01T23:29:11.426Z,10.70
2019-04-01T23:31:41.008Z,10.71
2019-04-01T23:34:08.012Z,10.82
2019-04-01T23:36:35.098Z,10.88
2019-04-01T23:39:05.169Z,10.81
2019-04-01T23:41:32.558Z,10.76
2019-04-01T23:43:59.418Z,10.90
2019-04-01T23:46:26.708Z,11.03
2019-04-01T23:48:53.601Z,11.08
2019-04-01T23:51:20.643Z,11.04
2019-04-01T23:53:47.613Z,10.93
2019-04-01T23:56:16.782Z,10.82
2019-04-01T23:58:43.829Z,10.77
